Time;durP1;ratioP1;P1;durP2;ratioP2;P2;SDS_P1;SDS_P2;PMS_P1;PMS_P2;Temp;Humidity;BMP_temperature;BMP_pressure;BME280_temperature;BME280_humidity;BME280_pressure;Samples;Min_cycle;Max_cycle;Signal;HPM_P1;HPM_P2
2023/02/07 00:01:24;;;;;;;20.35;10.23;;;;;;;-0.55;92.57;104271.91;6097495;19;20499;-73
2023/02/07 00:03:29;;;;;;;23.90;9.73;;;;;;;-0.59;92.99;104264.75;6102417;19;20006;-73
2023/02/07 00:05:39;;;;;;;23.00;10.13;;;;;;;-0.54;93.43;104271.09;6102282;19;20394;-73
2023/02/07 00:07:44;;;;;;;24.98;10.65;;;;;;;-0.55;93.12;104266.75;6094041;19;20479;-74
2023/02/07 00:09:49;;;;;;;14.52;8.23;;;;;;;-0.57;92.77;104262.28;6103066;19;20391;-74
2023/02/07 00:11:54;;;;;;;19.20;10.65;;;;;;;-0.57;93.47;104254.53;6103461;19;20472;-74
2023/02/07 00:14:01;;;;;;;17.40;10.15;;;;;;;-0.62;92.78;104262.00;6102794;19;20559;-73
2023/02/07 00:16:10;;;;;;;19.33;9.95;;;;;;;-0.67;92.90;104251.38;6102804;19;20040;-75
2023/02/07 00:18:16;;;;;;;19.75;10.38;;;;;;;-0.67;93.41;104250.50;6098440;19;20014;-75
2023/02/07 00:20:21;;;;;;;18.35;9.60;;;;;;;-0.70;92.99;104253.78;6099759;19;20026;-74
2023/02/07 00:22:30;;;;;;;14.60;8.95;;;;;;;-0.74;92.25;104256.06;6100695;19;20043;-75
2023/02/07 00:24:34;;;;;;;18.40;8.07;;;;;;;-0.71;92.06;104258.84;6101696;19;20007;-74
2023/02/07 00:26:40;;;;;;;17.17;8.18;;;;;;;-0.72;92.04;104249.31;6095880;19;20348;-74
2023/02/07 00:28:46;;;;;;;15.63;7.90;;;;;;;-0.72;91.59;104252.78;6101072;19;20095;-75
2023/02/07 00:30:52;;;;;;;17.92;8.30;;;;;;;-0.71;92.27;104254.59;6101292;19;20094;-74
2023/02/07 00:32:57;;;;;;;17.75;8.88;;;;;;;-0.75;92.78;104255.19;6102044;19;20006;-75
2023/02/07 00:35:02;;;;;;;15.45;7.95;;;;;;;-0.76;92.40;104249.94;6097062;19;20010;-74
2023/02/07 00:37:08;;;;;;;20.83;9.02;;;;;;;-0.77;92.54;104245.56;6099584;19;20097;-74
2023/02/07 00:39:19;;;;;;;17.00;8.15;;;;;;;-0.73;92.77;104250.13;6101931;19;20030;-75
2023/02/07 00:41:24;;;;;;;17.42;8.52;;;;;;;-0.75;92.55;104247.44;6099207;19;20011;-75
2023/02/07 00:43:31;;;;;;;22.65;9.55;;;;;;;-0.73;93.28;104245.84;6101050;19;20110;-75
2023/02/07 00:45:37;;;;;;;17.20;7.90;;;;;;;-0.78;92.59;104246.38;6098974;19;21456;-75
2023/02/07 00:47:42;;;;;;;17.55;9.50;;;;;;;-0.85;92.42;104239.91;6095851;19;20639;-75
2023/02/07 00:49:47;;;;;;;14.90;8.52;;;;;;;-0.86;91.88;104242.44;6098977;19;20015;-74
2023/02/07 00:51:53;;;;;;;13.32;7.68;;;;;;;-0.89;91.92;104246.59;6098778;19;20011;-74
2023/02/07 00:53:59;;;;;;;19.20;8.95;;;;;;;-0.86;92.77;104237.28;6095043;19;20044;-75
2023/02/07 00:56:08;;;;;;;17.05;7.97;;;;;;;-0.93;92.27;104230.81;6101684;19;20343;-74
2023/02/07 00:58:13;;;;;;;14.25;7.85;;;;;;;-0.96;92.39;104249.59;6100872;19;20007;-74
2023/02/07 01:00:20;;;;;;;18.65;8.43;;;;;;;-0.94;93.02;104236.78;6106254;19;20388;-75
2023/02/07 01:02:25;;;;;;;20.80;9.50;;;;;;;-0.92;93.68;104232.63;6103392;19;20358;-75
2023/02/07 01:04:30;;;;;;;16.45;8.15;;;;;;;-0.96;93.44;104230.63;6108663;19;20376;-75
2023/02/07 01:06:35;;;;;;;28.58;11.23;;;;;;;-0.98;93.27;104235.69;6106844;19;20015;-75
2023/02/07 01:08:41;;;;;;;15.85;7.22;;;;;;;-1.00;92.91;104234.72;6104383;19;20470;-75
2023/02/07 01:10:47;;;;;;;16.63;7.65;;;;;;;-1.01;92.98;104238.09;6104713;19;20495;-74
2023/02/07 01:12:56;;;;;;;14.68;7.35;;;;;;;-1.00;92.70;104247.63;6104646;19;20006;-74
2023/02/07 01:15:01;;;;;;;21.23;7.97;;;;;;;-0.97;92.36;104245.25;6108050;19;20011;-75
2023/02/07 01:17:06;;;;;;;16.25;8.75;;;;;;;-0.89;92.82;104244.00;6105763;19;20006;-73
2023/02/07 01:19:12;;;;;;;16.75;8.40;;;;;;;-0.81;93.22;104246.19;6106028;19;20082;-74
2023/02/07 01:21:20;;;;;;;17.23;8.48;;;;;;;-0.81;92.85;104238.44;6103225;19;20021;-75
2023/02/07 01:23:26;;;;;;;20.00;10.00;;;;;;;-0.84;92.81;104245.97;6108171;19;20590;-75
2023/02/07 01:25:31;;;;;;;16.02;7.28;;;;;;;-0.87;92.90;104246.66;6107766;19;20018;-74
2023/02/07 01:27:37;;;;;;;19.92;8.80;;;;;;;-0.81;93.36;104251.34;6105967;19;20013;-74
2023/02/07 01:29:44;;;;;;;19.15;8.70;;;;;;;-0.81;93.34;104244.50;6101924;19;20019;-74
2023/02/07 01:31:52;;;;;;;15.20;8.82;;;;;;;-0.79;93.84;104241.97;6108515;19;20015;-74
2023/02/07 01:34:00;;;;;;;17.23;9.27;;;;;;;-0.78;93.23;104242.09;6109255;19;20043;-74
2023/02/07 01:36:10;;;;;;;16.40;7.18;;;;;;;-0.76;93.49;104244.78;6110275;19;20032;-74
2023/02/07 01:38:15;;;;;;;26.77;9.02;;;;;;;-0.75;93.63;104246.56;6106616;19;20045;-75
2023/02/07 01:40:20;;;;;;;13.73;7.00;;;;;;;-0.75;93.70;104244.84;6108649;19;20089;-75
2023/02/07 01:42:28;;;;;;;15.85;6.68;;;;;;;-0.79;93.10;104244.56;6104825;19;20047;-75
2023/02/07 01:45:05;;;;;;;15.85;8.32;;;;;;;-0.84;92.78;104248.56;6108382;19;20047;-75
2023/02/07 01:47:17;;;;;;;18.02;7.90;;;;;;;-0.84;93.51;104256.31;6105138;19;20010;-75
2023/02/07 01:49:25;;;;;;;13.23;6.88;;;;;;;-0.82;94.20;104250.44;6106304;19;20011;-74
2023/02/07 01:51:33;;;;;;;16.58;8.45;;;;;;;-0.85;94.34;104254.53;6108278;19;20010;-74
2023/02/07 01:53:42;;;;;;;13.95;9.02;;;;;;;-0.86;94.52;104260.50;6102826;19;20015;-74
2023/02/07 01:55:50;;;;;;;19.13;8.55;;;;;;;-0.90;94.24;104260.28;6105226;19;20014;-74
2023/02/07 01:57:58;;;;;;;15.07;8.05;;;;;;;-0.86;94.50;104266.56;6106376;19;20019;-75
2023/02/07 02:00:10;;;;;;;14.85;8.57;;;;;;;-0.88;93.95;104265.56;6106673;19;20188;-74
2023/02/07 02:02:19;;;;;;;14.32;8.80;;;;;;;-0.86;94.19;104263.97;6105095;19;20023;-74
2023/02/07 02:04:24;;;;;;;17.88;8.30;;;;;;;-0.88;94.29;104265.56;6108149;19;20035;-74
2023/02/07 02:06:32;;;;;;;14.77;8.18;;;;;;;-0.86;94.93;104269.13;6106939;19;20333;-75
2023/02/07 02:08:38;;;;;;;13.85;7.50;;;;;;;-0.88;94.88;104262.97;6106568;19;20011;-74
2023/02/07 02:11:03;;;;;;;16.13;8.15;;;;;;;-0.92;94.11;104259.31;6103098;19;20021;-73
2023/02/07 02:13:22;;;;;;;17.45;8.23;;;;;;;-0.91;94.17;104263.69;6106794;19;20040;-74
2023/02/07 02:15:42;;;;;;;15.80;8.43;;;;;;;-0.93;94.58;104264.38;6105540;19;20066;-74
2023/02/07 02:17:59;;;;;;;14.13;7.65;;;;;;;-0.95;94.09;104263.38;6096554;19;20010;-74
2023/02/07 02:20:43;;;;;;;14.43;8.73;;;;;;;-0.99;93.73;104261.44;6097663;19;20491;-74
2023/02/07 02:23:29;;;;;;;19.42;8.77;;;;;;;-1.04;95.17;104252.50;6099921;19;20044;-74
2023/02/07 02:26:00;;;;;;;15.57;6.97;;;;;;;-1.10;94.13;104253.03;6103744;19;20327;-74
2023/02/07 02:28:28;;;;;;;23.92;10.32;;;;;;;-1.08;94.14;104256.56;6098451;19;20006;-75
2023/02/07 02:30:58;;;;;;;19.02;8.32;;;;;;;-1.09;93.91;104264.22;6100308;19;20642;-74
2023/02/07 02:33:35;;;;;;;15.63;7.95;;;;;;;-1.12;93.89;104264.94;6101976;19;20536;-76
2023/02/07 02:35:52;;;;;;;21.75;9.63;;;;;;;-1.13;94.87;104252.84;6101692;19;20078;-73
2023/02/07 02:38:05;;;;;;;12.88;6.60;;;;;;;-1.14;94.34;104248.44;6100588;19;20420;-77
2023/02/07 02:40:15;;;;;;;20.80;8.90;;;;;;;-1.18;94.02;104249.06;6101444;19;20010;-74
2023/02/07 02:42:29;;;;;;;17.88;7.88;;;;;;;-1.22;93.68;104247.06;6105368;19;20044;-75
2023/02/07 02:44:39;;;;;;;17.17;9.07;;;;;;;-1.23;94.38;104245.31;6103457;19;20002;-75
2023/02/07 02:46:47;;;;;;;16.58;8.55;;;;;;;-1.29;94.23;104240.66;6102377;19;20006;-76
2023/02/07 02:48:53;;;;;;;12.93;6.97;;;;;;;-1.30;94.23;104249.16;6105801;19;20414;-75
2023/02/07 02:51:02;;;;;;;16.08;8.27;;;;;;;-1.29;94.33;104240.66;6101881;19;20369;-74
2023/02/07 02:53:08;;;;;;;10.82;7.20;;;;;;;-1.27;94.37;104240.72;6102556;19;20007;-74
2023/02/07 02:55:13;;;;;;;12.60;7.65;;;;;;;-1.24;94.25;104238.34;6104737;19;20036;-74
2023/02/07 02:57:36;;;;;;;13.63;7.72;;;;;;;-1.23;94.09;104234.97;6104051;19;20014;-75
2023/02/07 03:00:08;;;;;;;14.60;7.95;;;;;;;-1.26;93.83;104229.59;6104643;19;20500;-74
2023/02/07 03:02:28;;;;;;;16.75;7.30;;;;;;;-1.25;93.83;104240.03;6096351;19;20086;-74
2023/02/07 03:04:58;;;;;;;16.80;8.07;;;;;;;-1.24;94.23;104233.19;6104714;19;20011;-74
2023/02/07 03:07:25;;;;;;;17.00;8.23;;;;;;;-1.09;94.28;104233.25;6103776;19;20007;-74
2023/02/07 03:09:39;;;;;;;16.55;8.43;;;;;;;-1.06;94.26;104236.91;6101366;19;20014;-75
2023/02/07 03:11:56;;;;;;;14.27;7.85;;;;;;;-1.04;94.25;104221.53;6096547;19;20404;-73
2023/02/07 03:14:09;;;;;;;10.93;7.30;;;;;;;-1.02;94.86;104219.94;6100816;19;20138;-74
2023/02/07 03:16:20;;;;;;;16.13;8.73;;;;;;;-1.00;95.18;104223.47;6103897;19;20006;-75
2023/02/07 03:18:31;;;;;;;19.20;8.00;;;;;;;-0.90;94.96;104224.13;6099909;19;20258;-75
2023/02/07 03:20:40;;;;;;;15.57;8.10;;;;;;;-0.78;94.86;104236.03;6099966;19;20025;-76
2023/02/07 03:22:49;;;;;;;15.68;9.38;;;;;;;-0.70;95.00;104219.31;6100753;19;20607;-75
2023/02/07 03:24:59;;;;;;;11.82;8.32;;;;;;;-0.70;94.78;104211.56;6102244;19;20015;-74
2023/02/07 03:27:11;;;;;;;14.70;7.80;;;;;;;-0.74;94.90;104204.41;6103171;19;20269;-75
2023/02/07 03:29:21;;;;;;;13.15;8.27;;;;;;;-0.72;94.80;104210.59;6105402;19;20507;-74
2023/02/07 03:31:28;;;;;;;12.88;8.20;;;;;;;-0.63;95.13;104211.16;6102195;19;20094;-74
2023/02/07 03:33:35;;;;;;;13.27;8.23;;;;;;;-0.64;94.98;104209.34;6104107;19;20027;-74
2023/02/07 03:35:44;;;;;;;12.30;8.57;;;;;;;-0.71;95.07;104202.94;6104657;19;20463;-75
2023/02/07 03:37:54;;;;;;;12.90;8.55;;;;;;;-0.75;95.20;104206.13;6099098;19;20014;-74
2023/02/07 03:39:59;;;;;;;14.20;8.75;;;;;;;-0.61;95.17;104218.97;6101933;19;20384;-74
2023/02/07 03:42:08;;;;;;;15.70;8.63;;;;;;;-0.59;95.00;104212.22;6100391;19;20026;-74
2023/02/07 03:44:16;;;;;;;18.83;9.07;;;;;;;-0.53;95.43;104210.88;6104953;19;20002;-74
2023/02/07 03:46:21;;;;;;;14.88;7.95;;;;;;;-0.52;95.21;104215.25;6100701;19;20063;-74
2023/02/07 03:48:27;;;;;;;16.75;9.45;;;;;;;-0.56;95.73;104214.97;6098839;19;20089;-74
2023/02/07 03:50:32;;;;;;;11.38;7.57;;;;;;;-0.65;95.22;104219.59;6099502;19;20007;-73
2023/02/07 03:52:40;;;;;;;13.75;8.40;;;;;;;-0.72;95.26;104211.47;6098738;19;20003;-75
2023/02/07 03:54:48;;;;;;;15.43;9.52;;;;;;;-0.77;95.59;104212.00;6102223;19;20463;-75
2023/02/07 03:56:53;;;;;;;16.02;8.95;;;;;;;-0.85;95.18;104214.09;6102596;19;20007;-75
2023/02/07 03:58:59;;;;;;;14.88;9.15;;;;;;;-0.83;95.49;104207.34;6100286;19;20018;-75
2023/02/07 04:01:05;;;;;;;16.50;9.40;;;;;;;-0.83;95.47;104207.34;6099495;19;20011;-75
2023/02/07 04:03:09;;;;;;;23.75;9.82;;;;;;;-0.85;95.39;104211.53;6100011;19;20007;-75
2023/02/07 04:05:14;;;;;;;14.30;8.98;;;;;;;-0.82;95.47;104215.97;6101829;19;20006;-76
2023/02/07 04:07:19;;;;;;;17.23;10.07;;;;;;;-0.73;95.75;104213.97;6099812;19;20007;-76
2023/02/07 04:09:24;;;;;;;15.50;10.00;;;;;;;-0.70;95.71;104214.16;6101036;19;20094;-74
2023/02/07 04:11:32;;;;;;;20.48;11.48;;;;;;;-0.65;96.31;104212.75;6098971;19;20014;-76
2023/02/07 04:13:39;;;;;;;18.20;10.88;;;;;;;-0.65;96.07;104222.19;6101421;19;20015;-75
2023/02/07 04:15:44;;;;;;;15.70;10.38;;;;;;;-0.58;96.19;104211.41;6097120;19;20036;-76
2023/02/07 04:17:49;;;;;;;25.42;12.27;;;;;;;-0.59;96.08;104220.84;6103002;19;21502;-74
2023/02/07 04:19:54;;;;;;;22.05;10.90;;;;;;;-0.54;96.32;104222.00;6100847;19;20795;-75
2023/02/07 04:22:02;;;;;;;24.05;11.68;;;;;;;-0.52;96.04;104219.53;6105389;19;20082;-75
2023/02/07 04:24:08;;;;;;;26.98;13.25;;;;;;;-0.41;95.91;104220.16;6100843;19;20312;-76
2023/02/07 04:26:14;;;;;;;23.42;12.65;;;;;;;-0.41;95.77;104220.16;6106631;19;20418;-74
2023/02/07 04:28:22;;;;;;;32.58;12.65;;;;;;;-0.41;95.93;104220.16;6105975;19;20014;-74
2023/02/07 04:30:27;;;;;;;33.50;14.80;;;;;;;-0.30;95.87;104222.56;6105129;19;20790;-75
2023/02/07 04:32:32;;;;;;;28.65;13.88;;;;;;;-0.18;96.04;104218.94;6103984;19;20066;-75
2023/02/07 04:34:40;;;;;;;26.58;11.90;;;;;;;-0.24;95.71;104216.88;6110909;19;20373;-76
2023/02/07 04:36:45;;;;;;;24.23;12.32;;;;;;;-0.28;95.54;104225.25;6110239;19;20388;-75
2023/02/07 04:38:50;;;;;;;25.17;13.00;;;;;;;-0.30;95.77;104221.69;6110904;19;20021;-75
2023/02/07 04:40:59;;;;;;;27.95;12.65;;;;;;;-0.33;95.62;104222.41;6107703;19;20018;-75
2023/02/07 04:43:04;;;;;;;25.55;13.02;;;;;;;-0.35;95.63;104225.69;6109621;19;20010;-75
2023/02/07 04:45:14;;;;;;;28.25;14.38;;;;;;;-0.42;95.86;104218.38;6109214;19;20018;-75
2023/02/07 04:47:19;;;;;;;27.80;13.85;;;;;;;-0.32;95.92;104216.41;6109019;19;20010;-75
2023/02/07 04:49:25;;;;;;;25.33;13.48;;;;;;;-0.24;95.97;104215.19;6106987;19;20437;-74
2023/02/07 04:51:31;;;;;;;25.90;11.98;;;;;;;-0.18;95.78;104196.56;6108035;19;20073;-74
2023/02/07 04:53:36;;;;;;;24.27;12.93;;;;;;;-0.22;95.64;104192.91;6103560;19;20138;-75
2023/02/07 04:55:41;;;;;;;33.40;13.95;;;;;;;-0.33;95.65;104203.44;6108136;19;20492;-75
2023/02/07 04:57:48;;;;;;;30.27;15.05;;;;;;;-0.29;95.78;104197.63;6103510;19;20456;-74
2023/02/07 04:59:53;;;;;;;34.00;14.27;;;;;;;-0.26;96.07;104193.53;6109522;19;20138;-75
2023/02/07 05:02:00;;;;;;;23.92;13.52;;;;;;;-0.23;95.92;104195.41;6106322;19;20018;-75
2023/02/07 05:04:06;;;;;;;21.95;13.18;;;;;;;-0.16;96.13;104202.69;6107924;19;20027;-75
2023/02/07 05:06:11;;;;;;;28.20;13.05;;;;;;;-0.18;96.03;104206.91;6106963;19;20013;-74
2023/02/07 05:08:18;;;;;;;24.10;12.43;;;;;;;-0.19;95.96;104204.22;6108018;19;20618;-75
2023/02/07 05:10:23;;;;;;;26.05;12.88;;;;;;;-0.23;96.03;104208.34;6109778;19;20010;-75
2023/02/07 05:12:28;;;;;;;32.05;14.77;;;;;;;-0.24;96.27;104201.34;6107704;19;20076;-74
2023/02/07 05:14:33;;;;;;;26.23;14.75;;;;;;;-0.24;95.84;104203.94;6107783;19;20006;-76
2023/02/07 05:16:45;;;;;;;31.65;13.82;;;;;;;-0.17;95.84;104203.50;6106120;19;20015;-76
2023/02/07 05:18:53;;;;;;;28.40;13.15;;;;;;;-0.19;95.98;104206.81;6105443;19;20019;-76
2023/02/07 05:21:01;;;;;;;30.90;14.45;;;;;;;-0.12;95.83;104201.19;6104211;19;20002;-75
2023/02/07 05:23:06;;;;;;;26.13;13.45;;;;;;;-0.16;95.75;104205.28;6109092;19;20011;-76
2023/02/07 05:25:14;;;;;;;27.02;13.98;;;;;;;-0.19;95.68;104205.09;6107086;19;20018;-75
2023/02/07 05:27:19;;;;;;;32.25;14.43;;;;;;;-0.24;95.62;104212.63;6107557;19;20343;-75
2023/02/07 05:29:24;;;;;;;19.13;11.32;;;;;;;-0.22;95.73;104213.56;6108106;19;20028;-75
2023/02/07 05:33:51;;;;;;;26.27;15.68;;;;;;;-0.33;95.86;104208.59;6081103;19;20015;-75
2023/02/07 05:35:58;;;;;;;30.77;13.95;;;;;;;-0.33;95.93;104208.59;6105166;19;20094;-75
2023/02/07 05:38:05;;;;;;;29.65;15.30;;;;;;;-0.42;95.71;104210.63;6107151;19;22416;-76
2023/02/07 05:40:12;;;;;;;28.98;14.68;;;;;;;-0.35;95.81;104213.66;6107728;19;20014;-74
2023/02/07 05:42:18;;;;;;;29.30;15.27;;;;;;;-0.41;95.78;104212.41;6107103;19;20021;-75
2023/02/07 05:44:22;;;;;;;26.08;14.18;;;;;;;-0.54;95.92;104206.50;6107538;19;20503;-75
2023/02/07 05:46:27;;;;;;;24.35;13.07;;;;;;;-0.61;95.86;104213.81;6106678;19;20475;-75
2023/02/07 05:48:32;;;;;;;28.60;14.07;;;;;;;-0.70;95.76;104209.88;6106306;19;20244;-76
2023/02/07 05:50:39;;;;;;;23.10;11.43;;;;;;;-0.79;95.80;104218.75;6108134;19;20506;-75
2023/02/07 05:52:50;;;;;;;23.98;12.02;;;;;;;-0.86;96.09;104214.03;6078630;19;20010;-75
2023/02/07 05:54:55;;;;;;;22.10;12.25;;;;;;;-0.91;96.18;104212.03;6106137;19;20019;-76
2023/02/07 05:57:01;;;;;;;23.52;13.25;;;;;;;-0.93;96.21;104216.22;6106611;19;20010;-76
2023/02/07 05:59:05;;;;;;;28.02;13.50;;;;;;;-0.87;96.32;104220.84;6107241;19;20428;-75
2023/02/07 06:01:11;;;;;;;24.90;13.00;;;;;;;-0.90;96.17;104225.84;6107716;19;20392;-75
2023/02/07 06:03:16;;;;;;;31.02;14.65;;;;;;;-0.99;96.18;104221.00;6101121;19;20334;-76
2023/02/07 06:05:21;;;;;;;25.15;13.55;;;;;;;-1.01;96.25;104221.72;6105900;19;20014;-76
2023/02/07 06:07:27;;;;;;;26.67;13.68;;;;;;;-1.02;96.15;104228.56;6106073;19;20007;-74
2023/02/07 06:09:37;;;;;;;28.25;12.43;;;;;;;-0.99;96.42;104221.00;6107702;19;20017;-74
2023/02/07 06:11:44;;;;;;;27.63;14.30;;;;;;;-0.98;96.44;104221.91;6107236;19;20398;-75
2023/02/07 06:13:50;;;;;;;30.85;14.40;;;;;;;-1.01;96.73;104224.28;6103788;19;20038;-75
2023/02/07 06:15:55;;;;;;;25.65;13.95;;;;;;;-1.09;96.62;104233.25;6106278;19;20027;-75
2023/02/07 06:18:03;;;;;;;32.35;16.10;;;;;;;-1.15;96.51;104231.19;6107413;19;21230;-75
2023/02/07 06:20:12;;;;;;;27.70;14.98;;;;;;;-1.15;96.54;104236.34;6102105;19;20014;-75
2023/02/07 06:22:17;;;;;;;28.52;14.25;;;;;;;-1.19;96.26;104240.41;6107190;19;20007;-75
2023/02/07 06:24:23;;;;;;;30.40;16.17;;;;;;;-1.21;96.44;104244.59;6105653;19;20082;-75
2023/02/07 06:26:30;;;;;;;35.72;14.95;;;;;;;-1.23;96.28;104247.88;6103369;19;20031;-73
2023/02/07 06:28:35;;;;;;;26.85;13.32;;;;;;;-1.25;96.33;104249.47;6106096;19;20895;-74
2023/02/07 06:30:40;;;;;;;33.40;15.20;;;;;;;-1.29;96.41;104250.06;6106342;19;20018;-75
2023/02/07 06:32:45;;;;;;;22.23;13.20;;;;;;;-1.31;96.52;104254.25;6105698;19;20523;-75
2023/02/07 06:34:51;;;;;;;33.33;16.15;;;;;;;-1.34;96.44;104253.25;6104065;19;20010;-75
2023/02/07 06:36:56;;;;;;;28.15;14.77;;;;;;;-1.38;96.29;104253.84;6103940;19;20069;-74
2023/02/07 06:39:02;;;;;;;28.98;15.13;;;;;;;-1.43;96.12;104244.91;6101929;19;20014;-76
2023/02/07 06:41:10;;;;;;;24.70;13.60;;;;;;;-1.43;96.24;104244.91;6107082;19;20352;-76
2023/02/07 06:43:18;;;;;;;30.08;14.70;;;;;;;-1.41;96.59;104253.66;6104895;19;20011;-74
2023/02/07 06:45:23;;;;;;;30.05;15.57;;;;;;;-1.37;96.77;104255.66;6105159;19;20003;-74
2023/02/07 06:47:28;;;;;;;24.15;13.75;;;;;;;-1.43;96.48;104252.66;6106980;19;20010;-74
2023/02/07 06:49:33;;;;;;;32.17;14.13;;;;;;;-1.38;96.50;104260.69;6103905;19;20010;-75
2023/02/07 06:51:38;;;;;;;28.70;13.40;;;;;;;-1.37;96.45;104255.66;6101314;19;20099;-75
2023/02/07 06:53:44;;;;;;;33.25;14.55;;;;;;;-1.32;96.59;104255.91;6095600;19;20007;-76
2023/02/07 06:55:50;;;;;;;28.42;15.30;;;;;;;-1.28;96.74;104247.59;6103371;19;20375;-75
2023/02/07 06:57:55;;;;;;;35.22;16.23;;;;;;;-1.26;96.64;104251.16;6103895;19;20011;-76
2023/02/07 07:00:05;;;;;;;27.90;14.38;;;;;;;-1.24;96.63;104254.72;6103258;19;20052;-75
2023/02/07 07:02:12;;;;;;;32.63;15.07;;;;;;;-1.20;96.55;104253.22;6102082;19;20014;-74
2023/02/07 07:04:17;;;;;;;33.78;16.17;;;;;;;-1.09;97.05;104257.38;6102369;19;20021;-74
2023/02/07 07:06:22;;;;;;;40.67;17.83;;;;;;;-0.97;96.92;104250.41;6080152;19;20020;-75
2023/02/07 07:08:28;;;;;;;39.58;18.95;;;;;;;-0.97;97.00;104260.72;6101633;19;20046;-74
2023/02/07 07:10:33;;;;;;;38.60;19.25;;;;;;;-0.86;96.85;104251.06;6102352;19;20003;-74
2023/02/07 07:12:38;;;;;;;51.28;19.13;;;;;;;-0.79;96.82;104257.47;6103141;19;20022;-74
2023/02/07 07:14:44;;;;;;;47.85;20.42;;;;;;;-0.73;96.72;104265.63;6100342;19;20035;-76
2023/02/07 07:16:54;;;;;;;48.60;20.42;;;;;;;-0.71;96.43;104270.09;6105870;19;20029;-76
2023/02/07 07:19:01;;;;;;;46.67;18.58;;;;;;;-0.74;96.53;104274.16;6102124;19;20121;-76
2023/02/07 07:21:06;;;;;;;53.70;20.30;;;;;;;-0.78;96.59;104273.06;6108114;19;20015;-75
2023/02/07 07:23:11;;;;;;;46.53;18.92;;;;;;;-0.76;96.78;104278.34;6104466;19;20031;-76
2023/02/07 07:25:18;;;;;;;40.17;19.08;;;;;;;-0.77;96.86;104274.84;6083358;19;20015;-75
2023/02/07 07:27:23;;;;;;;46.50;20.58;;;;;;;-0.78;96.54;104273.06;6106054;19;20003;-76
2023/02/07 07:29:28;;;;;;;48.80;20.90;;;;;;;-0.81;96.74;104290.97;6106610;19;20003;-77
2023/02/07 07:31:33;;;;;;;46.83;19.60;;;;;;;-0.80;96.57;104284.09;6107377;19;20014;-75
2023/02/07 07:33:43;;;;;;;45.53;20.20;;;;;;;-0.82;96.66;104290.88;6104616;19;20011;-75
2023/02/07 07:35:48;;;;;;;45.47;19.38;;;;;;;-0.75;96.39;104293.91;6064998;19;20279;-75
2023/02/07 07:37:53;;;;;;;49.55;21.63;;;;;;;-0.70;96.30;104292.50;6104582;19;20014;-76
2023/02/07 07:39:58;;;;;;;44.42;19.92;;;;;;;-0.67;96.34;104299.56;6105021;19;20224;-74
2023/02/07 07:42:03;;;;;;;45.67;19.77;;;;;;;-0.70;96.60;104295.09;6102566;19;20090;-76
2023/02/07 07:44:09;;;;;;;56.45;22.67;;;;;;;-0.79;96.62;104304.88;6096454;19;20002;-76
2023/02/07 07:46:14;;;;;;;52.60;20.58;;;;;;;-0.82;96.62;104308.94;6100961;19;20078;-74
2023/02/07 07:48:20;;;;;;;49.88;22.27;;;;;;;-0.83;96.66;104309.75;6100837;19;20016;-74
2023/02/07 07:50:28;;;;;;;41.00;18.85;;;;;;;-0.81;96.69;104313.31;6098860;19;20014;-74
2023/02/07 07:52:33;;;;;;;49.00;20.40;;;;;;;-0.82;96.45;104302.06;6097831;19;20098;-76
2023/02/07 07:54:38;;;;;;;56.03;21.48;;;;;;;-0.81;96.76;104297.84;6100981;19;20011;-77
2023/02/07 07:56:44;;;;;;;46.58;20.60;;;;;;;-0.78;96.80;104303.19;6098700;19;20416;-77
2023/02/07 07:58:50;;;;;;;41.88;17.70;;;;;;;-0.71;96.70;104300.16;6099057;19;20115;-76
2023/02/07 08:00:55;;;;;;;50.33;20.50;;;;;;;-0.70;96.77;104299.38;6098223;19;20011;-77
2023/02/07 08:03:00;;;;;;;47.65;20.08;;;;;;;-0.67;96.42;104304.72;6099097;19;20373;-77
2023/02/07 08:05:06;;;;;;;47.22;19.20;;;;;;;-0.61;96.29;104297.34;6097692;19;20768;-77
2023/02/07 08:07:17;;;;;;;52.33;22.40;;;;;;;-0.67;95.81;104303.03;6099492;19;20448;-76
2023/02/07 08:09:23;;;;;;;49.38;19.95;;;;;;;-0.69;96.09;104309.78;6100472;19;20027;-78
2023/02/07 08:11:28;;;;;;;47.83;21.25;;;;;;;-0.60;95.83;104293.97;6098014;19;20298;-77
2023/02/07 08:13:33;;;;;;;43.60;21.33;;;;;;;-0.63;95.75;104298.97;6096810;19;20015;-77
2023/02/07 08:15:40;;;;;;;47.13;20.13;;;;;;;-0.57;95.75;104301.91;6094750;19;20525;-73
2023/02/07 08:17:45;;;;;;;49.47;20.38;;;;;;;-0.55;95.65;104302.03;6094155;19;20618;-75
2023/02/07 08:19:50;;;;;;;47.15;18.70;;;;;;;-0.54;95.76;104314.13;6098363;19;20402;-74
2023/02/07 08:21:55;;;;;;;45.78;19.45;;;;;;;-0.62;95.85;104311.06;6096675;19;20468;-74
2023/02/07 08:24:03;;;;;;;56.10;22.05;;;;;;;-0.68;95.63;104309.00;6094905;19;20106;-76
2023/02/07 08:26:08;;;;;;;43.35;19.55;;;;;;;-0.57;95.44;104307.09;6096594;19;20569;-74
2023/02/07 08:28:14;;;;;;;40.97;17.10;;;;;;;-0.56;95.23;104301.09;6098888;19;20017;-77
2023/02/07 08:30:20;;;;;;;43.20;18.88;;;;;;;-0.63;95.39;104304.13;6100741;19;20040;-78
2023/02/07 08:32:27;;;;;;;49.10;20.92;;;;;;;-0.58;95.51;104302.72;6096132;19;20018;-78
2023/02/07 08:34:36;;;;;;;41.30;15.95;;;;;;;-0.55;95.74;104292.56;6098656;19;20021;-77
2023/02/07 08:36:41;;;;;;;38.47;18.55;;;;;;;-0.50;95.64;104293.75;6097238;19;20142;-74
2023/02/07 08:38:52;;;;;;;39.70;17.42;;;;;;;-0.44;95.77;104290.63;6102127;19;20382;-75
2023/02/07 08:41:00;;;;;;;64.68;23.50;;;;;;;-0.42;95.76;104296.81;6103510;19;20340;-75
2023/02/07 08:43:11;;;;;;;49.95;20.58;;;;;;;-0.34;95.48;104307.56;6102530;19;20527;-75
2023/02/07 08:45:19;;;;;;;48.67;19.33;;;;;;;-0.31;95.18;104308.66;6100498;19;20090;-75
2023/02/07 08:47:25;;;;;;;37.97;18.17;;;;;;;-0.27;95.18;104310.63;6103333;19;20023;-74
2023/02/07 08:49:30;;;;;;;49.50;21.45;;;;;;;-0.31;95.14;104311.25;6096506;19;20011;-74
2023/02/07 08:51:35;;;;;;;42.60;19.77;;;;;;;-0.29;95.24;104312.25;6080554;19;20015;-75
2023/02/07 08:53:40;;;;;;;61.60;21.08;;;;;;;-0.27;94.79;104320.06;6093303;19;20020;-75
2023/02/07 08:55:45;;;;;;;49.40;20.23;;;;;;;-0.23;95.03;104332.38;6098919;19;20022;-74
2023/02/07 08:57:54;;;;;;;46.88;21.40;;;;;;;-0.17;94.65;104322.41;6094901;19;20027;-74
2023/02/07 08:59:59;;;;;;;47.17;22.00;;;;;;;-0.09;94.85;104321.16;6098831;19;20007;-74
2023/02/07 09:02:04;;;;;;;50.60;22.27;;;;;;;-0.16;94.90;104324.19;6096543;19;20027;-75
2023/02/07 09:04:10;;;;;;;38.65;19.23;;;;;;;-0.09;95.14;104318.59;6095313;19;20110;-74
2023/02/07 09:06:15;;;;;;;47.00;19.33;;;;;;;-0.04;94.68;104319.75;6094378;19;20017;-74
2023/02/07 09:08:20;;;;;;;53.30;23.00;;;;;;;0.09;94.42;104310.16;6098153;19;20007;-76
2023/02/07 09:10:26;;;;;;;64.47;23.73;;;;;;;0.14;94.03;104319.94;6098187;19;20015;-77
2023/02/07 09:12:31;;;;;;;45.40;22.27;;;;;;;0.14;94.21;104319.06;6103422;19;20429;-77
2023/02/07 09:14:39;;;;;;;51.13;23.00;;;;;;;0.14;94.19;104314.78;6102284;19;20011;-74
2023/02/07 09:16:44;;;;;;;47.08;21.58;;;;;;;0.15;94.17;104308.78;6097836;19;20342;-74
2023/02/07 09:18:50;;;;;;;55.55;23.20;;;;;;;0.12;93.65;104310.31;6096406;19;20010;-74
2023/02/07 09:20:55;;;;;;;53.45;23.00;;;;;;;0.06;93.56;104313.44;6103289;19;20023;-74
2023/02/07 09:25:20;;;;;;;53.58;21.05;;;;;;;0.17;94.17;104298.56;6104656;19;20934;-77
2023/02/07 09:27:28;;;;;;;50.13;23.13;;;;;;;0.24;93.93;104311.03;6103170;19;20014;-78
2023/02/07 09:29:33;;;;;;;58.22;24.65;;;;;;;0.31;94.06;104302.81;6104598;19;20014;-77
2023/02/07 09:31:42;;;;;;;67.65;25.95;;;;;;;0.46;94.10;104305.41;6103735;19;20105;-74
2023/02/07 09:33:51;;;;;;;60.40;24.65;;;;;;;0.60;93.91;104303.59;6093031;19;20071;-75
2023/02/07 09:35:56;;;;;;;53.63;21.77;;;;;;;0.55;93.88;104305.03;6099205;19;20006;-79
2023/02/07 09:38:01;;;;;;;52.90;23.60;;;;;;;0.57;93.43;104303.41;6102249;19;20014;-78
2023/02/07 09:40:07;;;;;;;66.53;26.30;;;;;;;0.58;92.55;104303.50;6102073;19;20019;-76
2023/02/07 09:42:27;;;;;;;61.08;25.30;;;;;;;0.63;93.16;104312.44;6102190;19;20035;-75
2023/02/07 09:44:49;;;;;;;51.15;23.23;;;;;;;0.78;92.81;104308.91;6101714;19;20017;-77
2023/02/07 09:47:04;;;;;;;52.63;24.13;;;;;;;0.88;92.36;104304.31;6102232;19;20448;-78
2023/02/07 09:49:18;;;;;;;56.83;21.85;;;;;;;0.97;92.20;104298.75;6100354;19;20055;-74